sensor_id;sensor_type;location;lat;lon;timestamp;P1;durP1;ratioP1;P2;durP2;ratioP2
53281;SDS011;39167;52.794;6.892;2023-04-05T00:01:30;12.65;;;5.68;;
53281;SDS011;39167;52.794;6.892;2023-04-05T00:03:57;10.82;;;5.05;;
53281;SDS011;39167;52.794;6.892;2023-04-05T00:06:24;10.80;;;5.47;;
53281;SDS011;39167;52.794;6.892;2023-04-05T00:08:54;11.88;;;5.43;;
53281;SDS011;39167;52.794;6.892;2023-04-05T00:11:21;13.60;;;5.63;;
53281;SDS011;39167;52.794;6.892;2023-04-05T00:13:47;9.70;;;5.65;;
53281;SDS011;39167;52.794;6.892;2023-04-05T00:16:14;9.77;;;5.40;;
53281;SDS011;39167;52.794;6.892;2023-04-05T00:18:40;10.43;;;5.55;;
53281;SDS011;39167;52.794;6.892;2023-04-05T00:21:10;14.65;;;6.10;;
53281;SDS011;39167;52.794;6.892;2023-04-05T00:23:39;11.90;;;5.68;;
53281;SDS011;39167;52.794;6.892;2023-04-05T00:26:06;12.50;;;5.53;;
53281;SDS011;39167;52.794;6.892;2023-04-05T00:28:31;10.95;;;5.88;;
53281;SDS011;39167;52.794;6.892;2023-04-05T00:30:58;14.18;;;5.88;;
53281;SDS011;39167;52.794;6.892;2023-04-05T00:33:24;9.70;;;5.60;;
53281;SDS011;39167;52.794;6.892;2023-04-05T00:35:49;9.35;;;5.68;;
53281;SDS011;39167;52.794;6.892;2023-04-05T00:38:15;10.77;;;5.05;;
53281;SDS011;39167;52.794;6.892;2023-04-05T00:40:41;9.23;;;5.55;;
53281;SDS011;39167;52.794;6.892;2023-04-05T00:43:07;11.95;;;6.18;;
53281;SDS011;39167;52.794;6.892;2023-04-05T00:45:32;9.23;;;4.85;;
53281;SDS011;39167;52.794;6.892;2023-04-05T00:47:59;12.82;;;6.07;;
53281;SDS011;39167;52.794;6.892;2023-04-05T00:50:25;13.40;;;5.72;;
53281;SDS011;39167;52.794;6.892;2023-04-05T00:52:55;13.05;;;5.70;;
53281;SDS011;39167;52.794;6.892;2023-04-05T00:55:22;13.00;;;6.70;;
53281;SDS011;39167;52.794;6.892;2023-04-05T00:57:47;12.50;;;6.13;;
53281;SDS011;39167;52.794;6.892;2023-04-05T01:00:16;10.10;;;5.60;;
53281;SDS011;39167;52.794;6.892;2023-04-05T01:02:51;10.98;;;6.07;;
53281;SDS011;39167;52.794;6.892;2023-04-05T01:08:28;10.65;;;5.55;;
53281;SDS011;39167;52.794;6.892;2023-04-05T01:11:04;11.68;;;5.90;;
53281;SDS011;39167;52.794;6.892;2023-04-05T01:13:31;10.98;;;5.72;;
53281;SDS011;39167;52.794;6.892;2023-04-05T01:15:57;11.40;;;5.97;;
53281;SDS011;39167;52.794;6.892;2023-04-05T01:18:23;12.57;;;6.25;;
53281;SDS011;39167;52.794;6.892;2023-04-05T01:29:38;11.20;;;6.00;;
53281;SDS011;39167;52.794;6.892;2023-04-05T01:35:21;9.38;;;5.38;;
53281;SDS011;39167;52.794;6.892;2023-04-05T01:37:50;12.55;;;6.70;;
53281;SDS011;39167;52.794;6.892;2023-04-05T01:40:19;15.02;;;7.18;;
53281;SDS011;39167;52.794;6.892;2023-04-05T01:42:46;15.07;;;6.90;;
53281;SDS011;39167;52.794;6.892;2023-04-05T01:45:12;14.88;;;7.88;;
53281;SDS011;39167;52.794;6.892;2023-04-05T01:47:38;12.55;;;6.70;;
53281;SDS011;39167;52.794;6.892;2023-04-05T01:50:03;15.13;;;7.22;;
53281;SDS011;39167;52.794;6.892;2023-04-05T01:52:30;13.07;;;6.57;;
53281;SDS011;39167;52.794;6.892;2023-04-05T01:54:55;15.73;;;5.88;;
53281;SDS011;39167;52.794;6.892;2023-04-05T01:57:22;12.90;;;6.40;;
53281;SDS011;39167;52.794;6.892;2023-04-05T01:59:47;14.75;;;6.45;;
53281;SDS011;39167;52.794;6.892;2023-04-05T02:02:13;15.70;;;7.05;;
53281;SDS011;39167;52.794;6.892;2023-04-05T02:04:39;12.40;;;6.40;;
53281;SDS011;39167;52.794;6.892;2023-04-05T02:07:06;13.57;;;6.68;;
53281;SDS011;39167;52.794;6.892;2023-04-05T02:09:32;14.90;;;6.07;;
53281;SDS011;39167;52.794;6.892;2023-04-05T02:11:57;11.63;;;6.40;;
53281;SDS011;39167;52.794;6.892;2023-04-05T02:14:23;14.57;;;6.85;;
53281;SDS011;39167;52.794;6.892;2023-04-05T02:16:50;16.80;;;6.28;;
53281;SDS011;39167;52.794;6.892;2023-04-05T02:19:18;12.57;;;6.18;;
53281;SDS011;39167;52.794;6.892;2023-04-05T02:21:49;14.65;;;7.03;;
53281;SDS011;39167;52.794;6.892;2023-04-05T02:24:17;12.90;;;6.10;;
53281;SDS011;39167;52.794;6.892;2023-04-05T02:26:43;12.10;;;6.20;;
53281;SDS011;39167;52.794;6.892;2023-04-05T02:29:09;11.10;;;6.57;;
53281;SDS011;39167;52.794;6.892;2023-04-05T02:31:35;12.88;;;6.43;;
53281;SDS011;39167;52.794;6.892;2023-04-05T02:34:01;12.90;;;6.25;;
53281;SDS011;39167;52.794;6.892;2023-04-05T02:36:26;13.05;;;6.20;;
53281;SDS011;39167;52.794;6.892;2023-04-05T02:38:53;15.32;;;6.10;;
53281;SDS011;39167;52.794;6.892;2023-04-05T02:41:19;11.85;;;6.65;;
53281;SDS011;39167;52.794;6.892;2023-04-05T02:43:46;12.25;;;6.60;;
53281;SDS011;39167;52.794;6.892;2023-04-05T02:46:12;13.93;;;6.22;;
53281;SDS011;39167;52.794;6.892;2023-04-05T02:48:38;12.30;;;6.82;;
53281;SDS011;39167;52.794;6.892;2023-04-05T02:51:03;17.35;;;7.20;;
53281;SDS011;39167;52.794;6.892;2023-04-05T02:53:29;13.95;;;6.40;;
53281;SDS011;39167;52.794;6.892;2023-04-05T02:55:55;17.52;;;6.90;;
53281;SDS011;39167;52.794;6.892;2023-04-05T02:58:22;11.82;;;6.38;;
53281;SDS011;39167;52.794;6.892;2023-04-05T03:00:49;12.00;;;6.75;;
53281;SDS011;39167;52.794;6.892;2023-04-05T03:03:16;14.05;;;7.78;;
53281;SDS011;39167;52.794;6.892;2023-04-05T03:05:42;13.35;;;7.25;;
53281;SDS011;39167;52.794;6.892;2023-04-05T03:08:09;18.05;;;7.47;;
53281;SDS011;39167;52.794;6.892;2023-04-05T03:10:46;14.48;;;6.80;;
53281;SDS011;39167;52.794;6.892;2023-04-05T03:13:12;12.48;;;6.38;;
53281;SDS011;39167;52.794;6.892;2023-04-05T03:15:39;10.98;;;6.25;;
53281;SDS011;39167;52.794;6.892;2023-04-05T03:18:06;13.27;;;8.07;;
53281;SDS011;39167;52.794;6.892;2023-04-05T03:20:32;13.18;;;7.00;;
53281;SDS011;39167;52.794;6.892;2023-04-05T03:23:00;14.38;;;7.30;;
53281;SDS011;39167;52.794;6.892;2023-04-05T03:25:27;12.52;;;7.47;;
53281;SDS011;39167;52.794;6.892;2023-04-05T03:27:53;14.73;;;6.97;;
53281;SDS011;39167;52.794;6.892;2023-04-05T03:30:19;15.55;;;7.18;;
53281;SDS011;39167;52.794;6.892;2023-04-05T03:32:45;14.40;;;6.90;;
53281;SDS011;39167;52.794;6.892;2023-04-05T03:35:11;13.27;;;6.68;;
53281;SDS011;39167;52.794;6.892;2023-04-05T03:37:37;14.18;;;8.02;;
53281;SDS011;39167;52.794;6.892;2023-04-05T03:40:02;14.07;;;7.35;;
53281;SDS011;39167;52.794;6.892;2023-04-05T03:42:30;14.32;;;8.23;;
53281;SDS011;39167;52.794;6.892;2023-04-05T03:44:56;14.85;;;7.97;;
53281;SDS011;39167;52.794;6.892;2023-04-05T03:47:23;13.63;;;7.28;;
53281;SDS011;39167;52.794;6.892;2023-04-05T03:49:49;19.75;;;7.78;;
53281;SDS011;39167;52.794;6.892;2023-04-05T03:52:15;15.35;;;7.93;;
53281;SDS011;39167;52.794;6.892;2023-04-05T03:54:40;16.45;;;7.07;;
53281;SDS011;39167;52.794;6.892;2023-04-05T03:57:06;15.65;;;7.10;;
53281;SDS011;39167;52.794;6.892;2023-04-05T03:59:32;12.30;;;7.70;;
53281;SDS011;39167;52.794;6.892;2023-04-05T04:01:57;14.43;;;8.15;;
53281;SDS011;39167;52.794;6.892;2023-04-05T04:04:23;15.60;;;7.50;;
53281;SDS011;39167;52.794;6.892;2023-04-05T04:06:49;13.55;;;7.72;;
53281;SDS011;39167;52.794;6.892;2023-04-05T04:09:15;15.70;;;7.43;;
53281;SDS011;39167;52.794;6.892;2023-04-05T04:11:41;17.98;;;8.25;;
53281;SDS011;39167;52.794;6.892;2023-04-05T04:14:06;16.17;;;7.60;;
53281;SDS011;39167;52.794;6.892;2023-04-05T04:16:32;16.95;;;8.15;;
53281;SDS011;39167;52.794;6.892;2023-04-05T04:18:58;15.27;;;7.45;;
53281;SDS011;39167;52.794;6.892;2023-04-05T04:21:24;15.43;;;7.82;;
53281;SDS011;39167;52.794;6.892;2023-04-05T04:23:50;16.02;;;7.65;;
53281;SDS011;39167;52.794;6.892;2023-04-05T04:26:17;15.55;;;7.90;;
53281;SDS011;39167;52.794;6.892;2023-04-05T04:28:51;14.57;;;7.68;;
53281;SDS011;39167;52.794;6.892;2023-04-05T04:31:17;17.73;;;8.35;;
53281;SDS011;39167;52.794;6.892;2023-04-05T04:33:45;16.63;;;7.95;;
53281;SDS011;39167;52.794;6.892;2023-04-05T04:36:13;15.15;;;7.53;;
53281;SDS011;39167;52.794;6.892;2023-04-05T04:38:42;14.55;;;8.27;;
53281;SDS011;39167;52.794;6.892;2023-04-05T04:41:12;16.10;;;8.00;;
53281;SDS011;39167;52.794;6.892;2023-04-05T04:43:38;14.98;;;8.00;;
53281;SDS011;39167;52.794;6.892;2023-04-05T04:46:08;15.05;;;8.23;;
53281;SDS011;39167;52.794;6.892;2023-04-05T04:48:42;19.23;;;9.25;;
53281;SDS011;39167;52.794;6.892;2023-04-05T04:51:07;18.25;;;8.20;;
53281;SDS011;39167;52.794;6.892;2023-04-05T04:53:33;15.88;;;7.95;;
53281;SDS011;39167;52.794;6.892;2023-04-05T04:55:59;17.50;;;8.13;;
53281;SDS011;39167;52.794;6.892;2023-04-05T04:58:24;13.20;;;8.02;;
53281;SDS011;39167;52.794;6.892;2023-04-05T05:00:50;14.75;;;8.35;;
53281;SDS011;39167;52.794;6.892;2023-04-05T05:03:17;15.43;;;8.07;;
53281;SDS011;39167;52.794;6.892;2023-04-05T05:05:48;16.10;;;8.88;;
53281;SDS011;39167;52.794;6.892;2023-04-05T05:08:15;22.73;;;8.77;;
53281;SDS011;39167;52.794;6.892;2023-04-05T05:10:41;16.15;;;8.38;;
53281;SDS011;39167;52.794;6.892;2023-04-05T05:13:07;19.08;;;9.38;;
53281;SDS011;39167;52.794;6.892;2023-04-05T05:15:32;19.08;;;9.00;;
53281;SDS011;39167;52.794;6.892;2023-04-05T05:17:58;12.23;;;8.90;;
53281;SDS011;39167;52.794;6.892;2023-04-05T05:20:24;17.38;;;8.80;;
53281;SDS011;39167;52.794;6.892;2023-04-05T05:22:52;16.52;;;8.75;;
53281;SDS011;39167;52.794;6.892;2023-04-05T05:25:19;17.65;;;9.05;;
53281;SDS011;39167;52.794;6.892;2023-04-05T05:27:48;14.25;;;8.93;;
53281;SDS011;39167;52.794;6.892;2023-04-05T05:30:15;15.00;;;9.27;;
53281;SDS011;39167;52.794;6.892;2023-04-05T05:32:41;14.73;;;9.02;;
53281;SDS011;39167;52.794;6.892;2023-04-05T05:35:07;18.00;;;10.00;;
53281;SDS011;39167;52.794;6.892;2023-04-05T05:37:33;19.00;;;9.55;;
53281;SDS011;39167;52.794;6.892;2023-04-05T05:40:00;16.77;;;9.85;;
53281;SDS011;39167;52.794;6.892;2023-04-05T05:42:28;16.08;;;9.60;;
53281;SDS011;39167;52.794;6.892;2023-04-05T05:44:56;15.43;;;9.00;;
53281;SDS011;39167;52.794;6.892;2023-04-05T05:47:22;18.67;;;10.07;;
53281;SDS011;39167;52.794;6.892;2023-04-05T05:49:48;18.65;;;10.15;;
53281;SDS011;39167;52.794;6.892;2023-04-05T05:52:14;18.80;;;10.25;;
53281;SDS011;39167;52.794;6.892;2023-04-05T05:54:40;16.23;;;9.52;;
53281;SDS011;39167;52.794;6.892;2023-04-05T05:57:06;18.80;;;10.68;;
53281;SDS011;39167;52.794;6.892;2023-04-05T05:59:31;16.98;;;10.32;;
53281;SDS011;39167;52.794;6.892;2023-04-05T06:01:57;14.48;;;9.98;;
53281;SDS011;39167;52.794;6.892;2023-04-05T06:04:23;18.02;;;10.10;;
53281;SDS011;39167;52.794;6.892;2023-04-05T06:06:48;14.18;;;9.70;;
53281;SDS011;39167;52.794;6.892;2023-04-05T06:09:15;17.50;;;9.93;;
53281;SDS011;39167;52.794;6.892;2023-04-05T06:11:41;19.35;;;10.32;;
53281;SDS011;39167;52.794;6.892;2023-04-05T06:14:07;18.17;;;10.32;;
53281;SDS011;39167;52.794;6.892;2023-04-05T06:16:32;17.80;;;10.15;;
53281;SDS011;39167;52.794;6.892;2023-04-05T06:18:59;20.23;;;10.73;;
53281;SDS011;39167;52.794;6.892;2023-04-05T06:21:25;16.30;;;10.23;;
53281;SDS011;39167;52.794;6.892;2023-04-05T06:23:51;16.10;;;10.05;;
53281;SDS011;39167;52.794;6.892;2023-04-05T06:26:18;18.23;;;10.85;;
53281;SDS011;39167;52.794;6.892;2023-04-05T06:28:45;17.15;;;9.88;;
53281;SDS011;39167;52.794;6.892;2023-04-05T06:31:12;18.58;;;11.30;;
53281;SDS011;39167;52.794;6.892;2023-04-05T06:33:40;21.00;;;10.20;;
53281;SDS011;39167;52.794;6.892;2023-04-05T06:36:06;17.58;;;10.25;;
53281;SDS011;39167;52.794;6.892;2023-04-05T06:38:32;14.88;;;10.38;;
53281;SDS011;39167;52.794;6.892;2023-04-05T06:40:58;17.67;;;10.10;;
53281;SDS011;39167;52.794;6.892;2023-04-05T06:43:24;18.67;;;10.90;;
53281;SDS011;39167;52.794;6.892;2023-04-05T06:45:50;21.83;;;10.85;;
53281;SDS011;39167;52.794;6.892;2023-04-05T06:48:16;18.30;;;9.73;;
53281;SDS011;39167;52.794;6.892;2023-04-05T06:50:41;15.23;;;9.88;;
53281;SDS011;39167;52.794;6.892;2023-04-05T06:53:07;17.67;;;9.93;;
53281;SDS011;39167;52.794;6.892;2023-04-05T06:55:33;16.92;;;10.80;;
53281;SDS011;39167;52.794;6.892;2023-04-05T06:57:59;17.42;;;9.48;;
53281;SDS011;39167;52.794;6.892;2023-04-05T07:00:25;18.42;;;11.63;;
53281;SDS011;39167;52.794;6.892;2023-04-05T07:02:50;18.63;;;11.02;;
53281;SDS011;39167;52.794;6.892;2023-04-05T07:05:16;16.70;;;9.65;;
53281;SDS011;39167;52.794;6.892;2023-04-05T07:07:42;16.98;;;10.05;;
53281;SDS011;39167;52.794;6.892;2023-04-05T07:10:09;18.98;;;10.32;;
53281;SDS011;39167;52.794;6.892;2023-04-05T07:12:36;16.70;;;9.93;;
53281;SDS011;39167;52.794;6.892;2023-04-05T07:15:02;16.08;;;9.10;;
53281;SDS011;39167;52.794;6.892;2023-04-05T07:17:28;19.45;;;8.40;;
53281;SDS011;39167;52.794;6.892;2023-04-05T07:19:54;16.25;;;9.18;;
53281;SDS011;39167;52.794;6.892;2023-04-05T07:22:19;13.30;;;8.07;;
53281;SDS011;39167;52.794;6.892;2023-04-05T07:24:45;15.25;;;8.50;;
53281;SDS011;39167;52.794;6.892;2023-04-05T07:27:11;14.80;;;7.78;;
53281;SDS011;39167;52.794;6.892;2023-04-05T07:29:37;16.38;;;8.60;;
53281;SDS011;39167;52.794;6.892;2023-04-05T07:32:05;12.50;;;7.60;;
53281;SDS011;39167;52.794;6.892;2023-04-05T07:34:32;12.68;;;7.70;;
53281;SDS011;39167;52.794;6.892;2023-04-05T07:36:58;12.73;;;8.30;;
53281;SDS011;39167;52.794;6.892;2023-04-05T07:39:24;14.50;;;7.70;;
53281;SDS011;39167;52.794;6.892;2023-04-05T07:41:50;15.57;;;7.72;;
53281;SDS011;39167;52.794;6.892;2023-04-05T07:44:16;15.68;;;7.82;;
53281;SDS011;39167;52.794;6.892;2023-04-05T07:46:42;11.63;;;7.55;;
53281;SDS011;39167;52.794;6.892;2023-04-05T07:49:09;13.88;;;7.88;;
53281;SDS011;39167;52.794;6.892;2023-04-05T07:51:35;12.32;;;7.45;;
53281;SDS011;39167;52.794;6.892;2023-04-05T07:54:02;14.80;;;7.55;;
53281;SDS011;39167;52.794;6.892;2023-04-05T07:56:31;10.75;;;6.47;;
53281;SDS011;39167;52.794;6.892;2023-04-05T07:58:57;12.70;;;6.72;;
53281;SDS011;39167;52.794;6.892;2023-04-05T08:01:23;14.45;;;6.20;;
53281;SDS011;39167;52.794;6.892;2023-04-05T08:03:55;12.50;;;6.70;;
53281;SDS011;39167;52.794;6.892;2023-04-05T08:06:21;11.73;;;6.45;;
53281;SDS011;39167;52.794;6.892;2023-04-05T08:08:48;10.40;;;6.20;;
53281;SDS011;39167;52.794;6.892;2023-04-05T08:11:15;8.38;;;5.72;;
53281;SDS011;39167;52.794;6.892;2023-04-05T08:13:40;8.70;;;5.82;;
53281;SDS011;39167;52.794;6.892;2023-04-05T08:16:07;10.02;;;4.90;;
53281;SDS011;39167;52.794;6.892;2023-04-05T08:18:33;10.75;;;4.85;;
53281;SDS011;39167;52.794;6.892;2023-04-05T08:20:59;9.50;;;5.00;;
53281;SDS011;39167;52.794;6.892;2023-04-05T08:23:25;9.45;;;5.20;;
53281;SDS011;39167;52.794;6.892;2023-04-05T08:25:51;9.85;;;4.53;;
53281;SDS011;39167;52.794;6.892;2023-04-05T08:28:18;7.15;;;4.07;;
53281;SDS011;39167;52.794;6.892;2023-04-05T08:30:43;9.18;;;4.60;;
53281;SDS011;39167;52.794;6.892;2023-04-05T08:33:10;7.65;;;4.20;;
53281;SDS011;39167;52.794;6.892;2023-04-05T08:35:37;7.70;;;4.40;;
53281;SDS011;39167;52.794;6.892;2023-04-05T08:38:03;7.40;;;3.90;;
53281;SDS011;39167;52.794;6.892;2023-04-05T08:40:40;8.07;;;4.03;;
53281;SDS011;39167;52.794;6.892;2023-04-05T08:45:51;8.65;;;4.00;;
53281;SDS011;39167;52.794;6.892;2023-04-05T08:48:18;8.18;;;4.10;;
53281;SDS011;39167;52.794;6.892;2023-04-05T08:50:52;10.85;;;4.10;;
53281;SDS011;39167;52.794;6.892;2023-04-05T08:53:18;9.23;;;4.07;;
53281;SDS011;39167;52.794;6.892;2023-04-05T08:55:51;8.95;;;4.00;;
53281;SDS011;39167;52.794;6.892;2023-04-05T08:58:20;6.88;;;3.28;;
53281;SDS011;39167;52.794;6.892;2023-04-05T09:00:46;6.07;;;3.58;;
53281;SDS011;39167;52.794;6.892;2023-04-05T09:03:14;7.13;;;3.67;;
53281;SDS011;39167;52.794;6.892;2023-04-05T09:05:48;8.20;;;3.20;;
53281;SDS011;39167;52.794;6.892;2023-04-05T09:08:16;6.13;;;3.50;;
53281;SDS011;39167;52.794;6.892;2023-04-05T09:10:42;6.78;;;3.35;;
53281;SDS011;39167;52.794;6.892;2023-04-05T09:13:08;9.07;;;3.50;;
53281;SDS011;39167;52.794;6.892;2023-04-05T09:15:38;6.60;;;2.88;;
53281;SDS011;39167;52.794;6.892;2023-04-05T09:18:05;7.32;;;2.80;;
53281;SDS011;39167;52.794;6.892;2023-04-05T09:20:31;6.93;;;3.08;;
53281;SDS011;39167;52.794;6.892;2023-04-05T09:22:56;9.23;;;3.80;;
53281;SDS011;39167;52.794;6.892;2023-04-05T09:25:36;7.40;;;3.42;;
53281;SDS011;39167;52.794;6.892;2023-04-05T09:28:09;6.78;;;3.40;;
53281;SDS011;39167;52.794;6.892;2023-04-05T09:33:01;9.13;;;3.75;;
53281;SDS011;39167;52.794;6.892;2023-04-05T09:35:30;6.65;;;3.40;;
53281;SDS011;39167;52.794;6.892;2023-04-05T09:38:00;7.30;;;3.72;;
53281;SDS011;39167;52.794;6.892;2023-04-05T09:40:48;7.15;;;3.75;;
53281;SDS011;39167;52.794;6.892;2023-04-05T09:46:03;8.57;;;3.72;;
53281;SDS011;39167;52.794;6.892;2023-04-05T09:48:48;9.60;;;3.60;;
53281;SDS011;39167;52.794;6.892;2023-04-05T09:51:14;8.95;;;3.47;;
53281;SDS011;39167;52.794;6.892;2023-04-05T09:54:00;6.65;;;3.90;;
53281;SDS011;39167;52.794;6.892;2023-04-05T09:56:29;10.20;;;3.88;;
53281;SDS011;39167;52.794;6.892;2023-04-05T09:59:09;9.18;;;3.72;;
53281;SDS011;39167;52.794;6.892;2023-04-05T10:01:42;8.90;;;4.22;;
53281;SDS011;39167;52.794;6.892;2023-04-05T10:04:09;7.78;;;4.13;;
53281;SDS011;39167;52.794;6.892;2023-04-05T10:09:05;9.13;;;4.35;;
53281;SDS011;39167;52.794;6.892;2023-04-05T10:11:32;8.07;;;4.35;;
53281;SDS011;39167;52.794;6.892;2023-04-05T10:14:03;7.18;;;3.85;;
53281;SDS011;39167;52.794;6.892;2023-04-05T10:19:15;7.68;;;4.40;;
53281;SDS011;39167;52.794;6.892;2023-04-05T10:21:48;10.57;;;4.60;;
53281;SDS011;39167;52.794;6.892;2023-04-05T10:26:52;9.85;;;4.57;;
53281;SDS011;39167;52.794;6.892;2023-04-05T10:29:37;6.35;;;4.00;;
53281;SDS011;39167;52.794;6.892;2023-04-05T10:35:16;7.18;;;4.00;;
53281;SDS011;39167;52.794;6.892;2023-04-05T10:37:53;6.40;;;3.95;;
53281;SDS011;39167;52.794;6.892;2023-04-05T10:40:33;7.35;;;3.75;;
53281;SDS011;39167;52.794;6.892;2023-04-05T10:43:02;7.97;;;4.20;;
53281;SDS011;39167;52.794;6.892;2023-04-05T10:45:31;6.82;;;3.70;;
53281;SDS011;39167;52.794;6.892;2023-04-05T10:50:55;7.47;;;3.85;;
53281;SDS011;39167;52.794;6.892;2023-04-05T10:53:22;8.63;;;4.20;;
53281;SDS011;39167;52.794;6.892;2023-04-05T10:55:50;7.15;;;4.25;;
53281;SDS011;39167;52.794;6.892;2023-04-05T10:58:17;7.93;;;4.60;;
53281;SDS011;39167;52.794;6.892;2023-04-05T11:00:45;8.30;;;4.03;;
53281;SDS011;39167;52.794;6.892;2023-04-05T11:03:39;7.82;;;4.10;;
53281;SDS011;39167;52.794;6.892;2023-04-05T11:06:23;6.68;;;4.00;;
53281;SDS011;39167;52.794;6.892;2023-04-05T11:11:39;9.38;;;4.47;;
53281;SDS011;39167;52.794;6.892;2023-04-05T11:14:20;8.80;;;4.00;;
53281;SDS011;39167;52.794;6.892;2023-04-05T11:16:49;6.68;;;3.88;;
53281;SDS011;39167;52.794;6.892;2023-04-05T11:20:05;7.68;;;4.18;;
53281;SDS011;39167;52.794;6.892;2023-04-05T11:22:06;8.75;;;4.05;;
53281;SDS011;39167;52.794;6.892;2023-04-05T11:25:06;7.57;;;4.18;;
53281;SDS011;39167;52.794;6.892;2023-04-05T11:27:34;6.55;;;3.47;;
53281;SDS011;39167;52.794;6.892;2023-04-05T11:30:05;9.60;;;4.20;;
53281;SDS011;39167;52.794;6.892;2023-04-05T11:32:43;9.30;;;4.30;;
53281;SDS011;39167;52.794;6.892;2023-04-05T11:35:16;8.07;;;4.20;;
53281;SDS011;39167;52.794;6.892;2023-04-05T11:40:25;9.13;;;4.05;;
53281;SDS011;39167;52.794;6.892;2023-04-05T11:43:11;6.63;;;4.43;;
53281;SDS011;39167;52.794;6.892;2023-04-05T11:45:37;7.15;;;4.50;;
53281;SDS011;39167;52.794;6.892;2023-04-05T11:48:06;7.50;;;4.43;;
53281;SDS011;39167;52.794;6.892;2023-04-05T11:50:36;7.45;;;4.28;;
53281;SDS011;39167;52.794;6.892;2023-04-05T11:53:16;8.13;;;4.45;;
53281;SDS011;39167;52.794;6.892;2023-04-05T11:55:46;8.43;;;4.80;;
53281;SDS011;39167;52.794;6.892;2023-04-05T11:58:18;9.57;;;4.53;;
53281;SDS011;39167;52.794;6.892;2023-04-05T12:00:55;9.90;;;4.10;;
53281;SDS011;39167;52.794;6.892;2023-04-05T12:03:23;8.25;;;3.85;;
53281;SDS011;39167;52.794;6.892;2023-04-05T12:08:15;6.88;;;4.25;;
53281;SDS011;39167;52.794;6.892;2023-04-05T12:10:57;6.35;;;3.78;;
53281;SDS011;39167;52.794;6.892;2023-04-05T12:15:59;9.55;;;4.13;;
53281;SDS011;39167;52.794;6.892;2023-04-05T12:18:26;8.02;;;4.68;;
53281;SDS011;39167;52.794;6.892;2023-04-05T12:20:53;10.30;;;3.95;;
53281;SDS011;39167;52.794;6.892;2023-04-05T12:23:20;7.35;;;3.75;;
53281;SDS011;39167;52.794;6.892;2023-04-05T12:25:47;7.10;;;4.30;;
53281;SDS011;39167;52.794;6.892;2023-04-05T12:28:13;11.88;;;4.05;;
53281;SDS011;39167;52.794;6.892;2023-04-05T12:30:48;7.53;;;4.10;;
53281;SDS011;39167;52.794;6.892;2023-04-05T12:33:24;6.10;;;3.88;;
53281;SDS011;39167;52.794;6.892;2023-04-05T12:35:51;6.80;;;3.88;;
53281;SDS011;39167;52.794;6.892;2023-04-05T12:38:17;5.28;;;3.53;;
53281;SDS011;39167;52.794;6.892;2023-04-05T12:40:43;8.50;;;3.90;;
53281;SDS011;39167;52.794;6.892;2023-04-05T12:43:09;7.47;;;4.05;;
53281;SDS011;39167;52.794;6.892;2023-04-05T12:45:35;6.43;;;3.42;;
53281;SDS011;39167;52.794;6.892;2023-04-05T12:48:09;8.23;;;3.72;;
53281;SDS011;39167;52.794;6.892;2023-04-05T12:50:45;7.80;;;3.97;;
53281;SDS011;39167;52.794;6.892;2023-04-05T12:53:16;7.78;;;3.92;;
53281;SDS011;39167;52.794;6.892;2023-04-05T12:55:53;7.03;;;4.00;;
53281;SDS011;39167;52.794;6.892;2023-04-05T12:58:21;6.03;;;3.90;;
53281;SDS011;39167;52.794;6.892;2023-04-05T13:00:56;6.57;;;4.03;;
53281;SDS011;39167;52.794;6.892;2023-04-05T13:03:24;6.63;;;3.55;;
53281;SDS011;39167;52.794;6.892;2023-04-05T13:05:51;7.72;;;4.47;;
53281;SDS011;39167;52.794;6.892;2023-04-05T13:08:17;6.57;;;3.85;;
53281;SDS011;39167;52.794;6.892;2023-04-05T13:10:44;7.30;;;3.85;;
53281;SDS011;39167;52.794;6.892;2023-04-05T13:13:11;7.80;;;4.15;;
53281;SDS011;39167;52.794;6.892;2023-04-05T13:15:46;11.07;;;4.45;;
53281;SDS011;39167;52.794;6.892;2023-04-05T13:18:12;8.50;;;4.55;;
53281;SDS011;39167;52.794;6.892;2023-04-05T13:20:41;10.35;;;4.65;;
53281;SDS011;39167;52.794;6.892;2023-04-05T13:23:07;7.70;;;3.80;;
53281;SDS011;39167;52.794;6.892;2023-04-05T13:25:39;11.65;;;4.20;;
53281;SDS011;39167;52.794;6.892;2023-04-05T13:28:06;8.38;;;3.78;;
53281;SDS011;39167;52.794;6.892;2023-04-05T13:30:33;5.63;;;3.65;;
53281;SDS011;39167;52.794;6.892;2023-04-05T13:32:58;8.60;;;4.93;;
53281;SDS011;39167;52.794;6.892;2023-04-05T13:35:24;9.77;;;4.22;;
53281;SDS011;39167;52.794;6.892;2023-04-05T13:37:51;7.22;;;3.90;;
53281;SDS011;39167;52.794;6.892;2023-04-05T13:40:16;7.78;;;3.90;;
53281;SDS011;39167;52.794;6.892;2023-04-05T13:42:42;7.78;;;3.67;;
53281;SDS011;39167;52.794;6.892;2023-04-05T13:45:08;6.72;;;3.45;;
53281;SDS011;39167;52.794;6.892;2023-04-05T13:47:34;7.82;;;3.50;;
53281;SDS011;39167;52.794;6.892;2023-04-05T13:50:00;9.30;;;3.80;;
53281;SDS011;39167;52.794;6.892;2023-04-05T13:52:27;6.47;;;3.53;;
53281;SDS011;39167;52.794;6.892;2023-04-05T13:54:53;12.25;;;4.13;;
53281;SDS011;39167;52.794;6.892;2023-04-05T13:57:18;5.68;;;3.72;;
53281;SDS011;39167;52.794;6.892;2023-04-05T13:59:44;6.85;;;3.90;;
53281;SDS011;39167;52.794;6.892;2023-04-05T14:02:10;6.75;;;3.67;;
53281;SDS011;39167;52.794;6.892;2023-04-05T14:04:37;6.90;;;3.55;;
53281;SDS011;39167;52.794;6.892;2023-04-05T14:07:03;7.43;;;3.92;;
53281;SDS011;39167;52.794;6.892;2023-04-05T14:09:30;6.38;;;3.58;;
53281;SDS011;39167;52.794;6.892;2023-04-05T14:11:57;7.13;;;3.65;;
53281;SDS011;39167;52.794;6.892;2023-04-05T14:14:25;8.35;;;3.63;;
53281;SDS011;39167;52.794;6.892;2023-04-05T14:16:51;10.52;;;3.30;;
53281;SDS011;39167;52.794;6.892;2023-04-05T14:19:17;8.80;;;3.55;;
53281;SDS011;39167;52.794;6.892;2023-04-05T14:21:43;8.07;;;3.42;;
53281;SDS011;39167;52.794;6.892;2023-04-05T14:24:10;6.38;;;3.30;;
53281;SDS011;39167;52.794;6.892;2023-04-05T14:26:37;6.25;;;3.25;;
53281;SDS011;39167;52.794;6.892;2023-04-05T14:29:03;6.00;;;3.40;;
53281;SDS011;39167;52.794;6.892;2023-04-05T14:31:29;7.47;;;3.53;;
53281;SDS011;39167;52.794;6.892;2023-04-05T14:33:55;5.45;;;3.50;;
53281;SDS011;39167;52.794;6.892;2023-04-05T14:36:21;6.97;;;2.70;;
53281;SDS011;39167;52.794;6.892;2023-04-05T14:38:47;8.80;;;4.00;;
53281;SDS011;39167;52.794;6.892;2023-04-05T14:41:13;6.22;;;3.10;;
53281;SDS011;39167;52.794;6.892;2023-04-05T14:43:38;7.03;;;3.75;;
53281;SDS011;39167;52.794;6.892;2023-04-05T14:46:04;5.53;;;3.75;;
53281;SDS011;39167;52.794;6.892;2023-04-05T14:48:30;6.00;;;3.30;;
53281;SDS011;39167;52.794;6.892;2023-04-05T14:50:58;6.63;;;3.28;;
53281;SDS011;39167;52.794;6.892;2023-04-05T14:53:24;6.43;;;3.28;;
53281;SDS011;39167;52.794;6.892;2023-04-05T14:55:50;5.13;;;2.90;;
53281;SDS011;39167;52.794;6.892;2023-04-05T14:58:16;6.63;;;3.63;;
53281;SDS011;39167;52.794;6.892;2023-04-05T15:00:42;8.30;;;3.60;;
53281;SDS011;39167;52.794;6.892;2023-04-05T15:03:09;7.00;;;3.60;;
53281;SDS011;39167;52.794;6.892;2023-04-05T15:05:35;5.07;;;3.03;;
53281;SDS011;39167;52.794;6.892;2023-04-05T15:08:01;4.80;;;2.92;;
53281;SDS011;39167;52.794;6.892;2023-04-05T15:10:26;5.50;;;2.85;;
53281;SDS011;39167;52.794;6.892;2023-04-05T15:12:52;7.43;;;2.88;;
53281;SDS011;39167;52.794;6.892;2023-04-05T15:15:18;7.18;;;3.30;;
53281;SDS011;39167;52.794;6.892;2023-04-05T15:17:44;5.57;;;3.10;;
53281;SDS011;39167;52.794;6.892;2023-04-05T15:20:10;7.80;;;3.00;;
53281;SDS011;39167;52.794;6.892;2023-04-05T15:22:36;7.50;;;3.35;;
53281;SDS011;39167;52.794;6.892;2023-04-05T15:25:05;4.78;;;3.15;;
53281;SDS011;39167;52.794;6.892;2023-04-05T15:27:32;6.55;;;3.00;;
53281;SDS011;39167;52.794;6.892;2023-04-05T15:29:58;6.88;;;3.00;;